sensor_id;sensor_type;location;lat;lon;timestamp;temperature;humidity
15259;DHT22;34462;51.368;12.364;2023-02-20T00:02:20;4.90;99.90
15259;DHT22;34462;51.368;12.364;2023-02-20T00:04:49;4.80;99.90
15259;DHT22;34462;51.368;12.364;2023-02-20T00:07:17;4.70;99.90
15259;DHT22;34462;51.368;12.364;2023-02-20T00:09:45;4.60;99.90
15259;DHT22;34462;51.368;12.364;2023-02-20T00:12:13;4.50;99.90
15259;DHT22;34462;51.368;12.364;2023-02-20T00:14:41;4.50;99.90
15259;DHT22;34462;51.368;12.364;2023-02-20T00:17:09;4.50;99.90
15259;DHT22;34462;51.368;12.364;2023-02-20T00:19:39;4.50;99.90
15259;DHT22;34462;51.368;12.364;2023-02-20T00:22:07;4.60;99.90
15259;DHT22;34462;51.368;12.364;2023-02-20T00:24:35;4.60;99.90
15259;DHT22;34462;51.368;12.364;2023-02-20T00:27:03;4.60;99.90
15259;DHT22;34462;51.368;12.364;2023-02-20T00:29:31;4.70;99.90
15259;DHT22;34462;51.368;12.364;2023-02-20T00:32:00;4.70;99.90
15259;DHT22;34462;51.368;12.364;2023-02-20T00:34:28;4.70;99.90
15259;DHT22;34462;51.368;12.364;2023-02-20T00:36:58;4.70;99.90
15259;DHT22;34462;51.368;12.364;2023-02-20T00:39:26;4.70;99.90
15259;DHT22;34462;51.368;12.364;2023-02-20T00:41:55;4.70;99.90
15259;DHT22;34462;51.368;12.364;2023-02-20T00:44:25;4.70;99.90
15259;DHT22;34462;51.368;12.364;2023-02-20T00:46:53;4.80;99.90
15259;DHT22;34462;51.368;12.364;2023-02-20T00:49:21;4.80;99.90
15259;DHT22;34462;51.368;12.364;2023-02-20T00:51:49;4.80;99.90
15259;DHT22;34462;51.368;12.364;2023-02-20T00:54:19;4.80;99.90
15259;DHT22;34462;51.368;12.364;2023-02-20T00:56:47;4.80;99.90
15259;DHT22;34462;51.368;12.364;2023-02-20T00:59:15;4.80;99.90
15259;DHT22;34462;51.368;12.364;2023-02-20T01:01:43;4.90;99.90
15259;DHT22;34462;51.368;12.364;2023-02-20T01:04:11;4.80;99.90
15259;DHT22;34462;51.368;12.364;2023-02-20T01:06:39;4.90;99.90
15259;DHT22;34462;51.368;12.364;2023-02-20T01:09:07;4.90;99.90
15259;DHT22;34462;51.368;12.364;2023-02-20T01:11:37;4.90;99.90
15259;DHT22;34462;51.368;12.364;2023-02-20T01:14:05;4.90;99.90
15259;DHT22;34462;51.368;12.364;2023-02-20T01:16:33;5.00;99.90
15259;DHT22;34462;51.368;12.364;2023-02-20T01:19:02;5.00;99.90
15259;DHT22;34462;51.368;12.364;2023-02-20T01:21:30;5.00;99.90
15259;DHT22;34462;51.368;12.364;2023-02-20T01:23:58;5.10;99.90
15259;DHT22;34462;51.368;12.364;2023-02-20T01:26:26;5.10;99.90
15259;DHT22;34462;51.368;12.364;2023-02-20T01:28:56;5.10;99.90
15259;DHT22;34462;51.368;12.364;2023-02-20T01:31:24;5.20;99.90
15259;DHT22;34462;51.368;12.364;2023-02-20T01:33:52;5.20;99.90
15259;DHT22;34462;51.368;12.364;2023-02-20T01:36:21;5.20;99.90
15259;DHT22;34462;51.368;12.364;2023-02-20T01:38:49;5.30;99.90
15259;DHT22;34462;51.368;12.364;2023-02-20T01:41:17;5.30;99.90
15259;DHT22;34462;51.368;12.364;2023-02-20T01:43:46;5.40;99.90
15259;DHT22;34462;51.368;12.364;2023-02-20T01:49:22;5.50;99.90
15259;DHT22;34462;51.368;12.364;2023-02-20T01:52:00;5.50;99.90
15259;DHT22;34462;51.368;12.364;2023-02-20T01:54:35;5.50;99.90
15259;DHT22;34462;51.368;12.364;2023-02-20T01:57:13;5.50;99.90
15259;DHT22;34462;51.368;12.364;2023-02-20T01:59:45;5.50;99.90
15259;DHT22;34462;51.368;12.364;2023-02-20T02:02:16;5.60;99.90
15259;DHT22;34462;51.368;12.364;2023-02-20T02:04:48;5.60;99.90
15259;DHT22;34462;51.368;12.364;2023-02-20T02:07:16;5.60;99.90
15259;DHT22;34462;51.368;12.364;2023-02-20T02:09:49;5.60;99.90
15259;DHT22;34462;51.368;12.364;2023-02-20T02:12:21;5.60;99.90
15259;DHT22;34462;51.368;12.364;2023-02-20T02:14:50;5.60;99.90
15259;DHT22;34462;51.368;12.364;2023-02-20T02:17:47;5.60;99.90
15259;DHT22;34462;51.368;12.364;2023-02-20T02:21:01;5.60;99.90
15259;DHT22;34462;51.368;12.364;2023-02-20T02:34:41;5.70;99.90
15259;DHT22;34462;51.368;12.364;2023-02-20T02:37:33;5.70;99.90
15259;DHT22;34462;51.368;12.364;2023-02-20T02:40:13;5.70;99.90
15259;DHT22;34462;51.368;12.364;2023-02-20T02:42:56;5.80;99.90
15259;DHT22;34462;51.368;12.364;2023-02-20T02:45:38;5.80;99.90
15259;DHT22;34462;51.368;12.364;2023-02-20T02:48:18;5.80;99.90
15259;DHT22;34462;51.368;12.364;2023-02-20T02:50:53;5.80;99.90
15259;DHT22;34462;51.368;12.364;2023-02-20T02:53:26;5.90;99.90
15259;DHT22;34462;51.368;12.364;2023-02-20T02:55:54;5.90;99.90
15259;DHT22;34462;51.368;12.364;2023-02-20T02:58:23;5.90;99.90
15259;DHT22;34462;51.368;12.364;2023-02-20T03:00:56;6.00;99.90
15259;DHT22;34462;51.368;12.364;2023-02-20T03:03:30;6.00;99.90
15259;DHT22;34462;51.368;12.364;2023-02-20T03:06:05;6.00;99.90
15259;DHT22;34462;51.368;12.364;2023-02-20T03:08:42;6.10;99.90
15259;DHT22;34462;51.368;12.364;2023-02-20T03:11:17;6.00;99.90
15259;DHT22;34462;51.368;12.364;2023-02-20T03:13:50;6.10;99.90
15259;DHT22;34462;51.368;12.364;2023-02-20T03:16:44;6.10;99.90
15259;DHT22;34462;51.368;12.364;2023-02-20T03:19:22;6.10;99.90
15259;DHT22;34462;51.368;12.364;2023-02-20T03:21:55;6.20;99.90
15259;DHT22;34462;51.368;12.364;2023-02-20T03:24:28;6.10;99.90
15259;DHT22;34462;51.368;12.364;2023-02-20T03:27:20;6.10;99.90
15259;DHT22;34462;51.368;12.364;2023-02-20T03:29:55;6.10;99.90
15259;DHT22;34462;51.368;12.364;2023-02-20T03:32:27;6.10;99.90
15259;DHT22;34462;51.368;12.364;2023-02-20T03:35:17;6.30;99.90
15259;DHT22;34462;51.368;12.364;2023-02-20T03:38:06;6.20;99.90
15259;DHT22;34462;51.368;12.364;2023-02-20T03:40:56;6.20;99.90
15259;DHT22;34462;51.368;12.364;2023-02-20T03:43:45;6.20;99.90
15259;DHT22;34462;51.368;12.364;2023-02-20T03:46:19;6.20;99.90
15259;DHT22;34462;51.368;12.364;2023-02-20T03:48:51;6.30;99.90
15259;DHT22;34462;51.368;12.364;2023-02-20T03:51:22;6.30;99.90
15259;DHT22;34462;51.368;12.364;2023-02-20T03:53:51;6.40;99.90
15259;DHT22;34462;51.368;12.364;2023-02-20T03:56:24;6.40;99.90
15259;DHT22;34462;51.368;12.364;2023-02-20T03:58:59;6.40;99.90
15259;DHT22;34462;51.368;12.364;2023-02-20T04:01:34;6.50;99.90
15259;DHT22;34462;51.368;12.364;2023-02-20T04:04:05;6.50;99.90
15259;DHT22;34462;51.368;12.364;2023-02-20T04:06:37;6.50;99.90
15259;DHT22;34462;51.368;12.364;2023-02-20T04:09:10;6.60;99.90
15259;DHT22;34462;51.368;12.364;2023-02-20T04:11:49;6.60;99.90
15259;DHT22;34462;51.368;12.364;2023-02-20T04:14:22;6.60;99.90
15259;DHT22;34462;51.368;12.364;2023-02-20T04:16:59;6.70;99.90
15259;DHT22;34462;51.368;12.364;2023-02-20T04:19:32;6.70;99.90
15259;DHT22;34462;51.368;12.364;2023-02-20T04:22:03;6.70;99.90
15259;DHT22;34462;51.368;12.364;2023-02-20T04:24:40;6.70;99.90
15259;DHT22;34462;51.368;12.364;2023-02-20T04:27:15;6.70;99.90
15259;DHT22;34462;51.368;12.364;2023-02-20T04:29:43;6.70;99.90
15259;DHT22;34462;51.368;12.364;2023-02-20T04:32:12;6.70;99.90
15259;DHT22;34462;51.368;12.364;2023-02-20T04:34:40;6.70;99.90
15259;DHT22;34462;51.368;12.364;2023-02-20T04:37:10;6.70;99.90
15259;DHT22;34462;51.368;12.364;2023-02-20T04:39:40;6.70;99.90
15259;DHT22;34462;51.368;12.364;2023-02-20T04:42:08;6.70;99.90
15259;DHT22;34462;51.368;12.364;2023-02-20T04:44:38;6.70;99.90
15259;DHT22;34462;51.368;12.364;2023-02-20T04:47:12;6.70;99.90
15259;DHT22;34462;51.368;12.364;2023-02-20T04:49:42;6.70;99.90
15259;DHT22;34462;51.368;12.364;2023-02-20T04:52:10;6.70;99.90
15259;DHT22;34462;51.368;12.364;2023-02-20T04:54:39;6.80;99.90
15259;DHT22;34462;51.368;12.364;2023-02-20T04:57:07;6.70;99.90
15259;DHT22;34462;51.368;12.364;2023-02-20T04:59:35;6.70;99.90
15259;DHT22;34462;51.368;12.364;2023-02-20T05:02:04;6.60;99.90
15259;DHT22;34462;51.368;12.364;2023-02-20T05:04:36;6.60;99.90
15259;DHT22;34462;51.368;12.364;2023-02-20T05:07:04;6.60;99.90
15259;DHT22;34462;51.368;12.364;2023-02-20T05:09:33;6.60;99.90
15259;DHT22;34462;51.368;12.364;2023-02-20T05:12:01;6.60;99.90
15259;DHT22;34462;51.368;12.364;2023-02-20T05:14:29;6.60;99.90
15259;DHT22;34462;51.368;12.364;2023-02-20T05:16:57;6.50;99.90
15259;DHT22;34462;51.368;12.364;2023-02-20T05:19:27;6.50;99.90
15259;DHT22;34462;51.368;12.364;2023-02-20T05:21:55;6.50;99.90
15259;DHT22;34462;51.368;12.364;2023-02-20T05:24:41;6.60;99.90
15259;DHT22;34462;51.368;12.364;2023-02-20T05:27:10;6.60;99.90
15259;DHT22;34462;51.368;12.364;2023-02-20T05:29:43;6.70;99.90
15259;DHT22;34462;51.368;12.364;2023-02-20T05:32:12;6.70;99.90
15259;DHT22;34462;51.368;12.364;2023-02-20T05:34:44;6.70;99.90
15259;DHT22;34462;51.368;12.364;2023-02-20T05:37:15;6.70;99.90
15259;DHT22;34462;51.368;12.364;2023-02-20T05:39:45;6.70;99.90
15259;DHT22;34462;51.368;12.364;2023-02-20T05:42:14;6.70;99.90
15259;DHT22;34462;51.368;12.364;2023-02-20T05:44:43;6.70;99.90
15259;DHT22;34462;51.368;12.364;2023-02-20T05:47:11;6.70;99.90
15259;DHT22;34462;51.368;12.364;2023-02-20T05:49:39;6.80;99.90
15259;DHT22;34462;51.368;12.364;2023-02-20T05:52:11;6.80;99.90
15259;DHT22;34462;51.368;12.364;2023-02-20T05:54:40;6.70;99.90
15259;DHT22;34462;51.368;12.364;2023-02-20T05:57:10;6.70;99.90
15259;DHT22;34462;51.368;12.364;2023-02-20T05:59:39;6.70;99.90
15259;DHT22;34462;51.368;12.364;2023-02-20T06:02:07;6.70;99.90
15259;DHT22;34462;51.368;12.364;2023-02-20T06:04:35;6.80;99.90
15259;DHT22;34462;51.368;12.364;2023-02-20T06:07:03;6.80;99.90
15259;DHT22;34462;51.368;12.364;2023-02-20T06:09:40;6.80;99.90
15259;DHT22;34462;51.368;12.364;2023-02-20T06:12:10;6.70;99.90
15259;DHT22;34462;51.368;12.364;2023-02-20T06:14:39;6.70;99.90
15259;DHT22;34462;51.368;12.364;2023-02-20T06:17:07;6.70;99.90
15259;DHT22;34462;51.368;12.364;2023-02-20T06:19:35;6.70;99.90
15259;DHT22;34462;51.368;12.364;2023-02-20T06:22:03;6.70;99.90
15259;DHT22;34462;51.368;12.364;2023-02-20T06:24:32;6.70;99.90
15259;DHT22;34462;51.368;12.364;2023-02-20T06:27:01;6.70;99.90
15259;DHT22;34462;51.368;12.364;2023-02-20T06:29:30;6.70;99.90
15259;DHT22;34462;51.368;12.364;2023-02-20T06:31:58;6.80;99.90
15259;DHT22;34462;51.368;12.364;2023-02-20T06:34:27;6.80;99.90
15259;DHT22;34462;51.368;12.364;2023-02-20T06:36:57;6.80;99.90
15259;DHT22;34462;51.368;12.364;2023-02-20T06:39:29;6.80;99.90
15259;DHT22;34462;51.368;12.364;2023-02-20T06:41:57;6.80;99.90
15259;DHT22;34462;51.368;12.364;2023-02-20T06:44:27;6.80;99.90
15259;DHT22;34462;51.368;12.364;2023-02-20T06:46:56;6.80;99.90
15259;DHT22;34462;51.368;12.364;2023-02-20T06:49:24;6.80;99.90
15259;DHT22;34462;51.368;12.364;2023-02-20T06:51:53;6.80;99.90
15259;DHT22;34462;51.368;12.364;2023-02-20T06:54:21;6.80;99.90
15259;DHT22;34462;51.368;12.364;2023-02-20T06:56:50;6.90;99.90
15259;DHT22;34462;51.368;12.364;2023-02-20T06:59:18;6.90;99.90
15259;DHT22;34462;51.368;12.364;2023-02-20T07:01:48;7.00;99.90
15259;DHT22;34462;51.368;12.364;2023-02-20T07:04:18;7.00;99.90
15259;DHT22;34462;51.368;12.364;2023-02-20T07:06:48;7.00;99.90
15259;DHT22;34462;51.368;12.364;2023-02-20T07:09:16;6.90;99.90
15259;DHT22;34462;51.368;12.364;2023-02-20T07:11:46;7.00;99.90
15259;DHT22;34462;51.368;12.364;2023-02-20T07:14:16;6.90;99.90
15259;DHT22;34462;51.368;12.364;2023-02-20T07:16:44;6.90;99.90
15259;DHT22;34462;51.368;12.364;2023-02-20T07:19:13;6.90;99.90
15259;DHT22;34462;51.368;12.364;2023-02-20T07:21:42;6.90;99.90
15259;DHT22;34462;51.368;12.364;2023-02-20T07:24:10;6.90;99.90
15259;DHT22;34462;51.368;12.364;2023-02-20T07:26:38;6.90;99.90
15259;DHT22;34462;51.368;12.364;2023-02-20T07:29:06;6.90;99.90
15259;DHT22;34462;51.368;12.364;2023-02-20T07:31:35;6.90;99.90
15259;DHT22;34462;51.368;12.364;2023-02-20T07:34:04;6.90;99.90
15259;DHT22;34462;51.368;12.364;2023-02-20T07:36:35;7.00;99.90
15259;DHT22;34462;51.368;12.364;2023-02-20T07:39:04;7.10;99.90
15259;DHT22;34462;51.368;12.364;2023-02-20T07:41:33;7.20;99.90
15259;DHT22;34462;51.368;12.364;2023-02-20T07:44:02;7.30;99.90
15259;DHT22;34462;51.368;12.364;2023-02-20T07:46:31;7.30;99.90
15259;DHT22;34462;51.368;12.364;2023-02-20T07:49:00;7.50;99.90
15259;DHT22;34462;51.368;12.364;2023-02-20T07:51:29;7.60;99.90
15259;DHT22;34462;51.368;12.364;2023-02-20T07:53:59;7.70;99.90
15259;DHT22;34462;51.368;12.364;2023-02-20T07:56:28;7.80;99.90
15259;DHT22;34462;51.368;12.364;2023-02-20T07:58:57;7.80;99.90
15259;DHT22;34462;51.368;12.364;2023-02-20T08:01:26;7.80;99.90
15259;DHT22;34462;51.368;12.364;2023-02-20T08:03:55;7.90;99.90
15259;DHT22;34462;51.368;12.364;2023-02-20T08:06:23;7.90;99.90
15259;DHT22;34462;51.368;12.364;2023-02-20T08:08:51;7.90;99.90
15259;DHT22;34462;51.368;12.364;2023-02-20T08:11:21;7.90;99.90
15259;DHT22;34462;51.368;12.364;2023-02-20T08:13:50;7.90;99.90
15259;DHT22;34462;51.368;12.364;2023-02-20T08:16:21;8.00;99.90
15259;DHT22;34462;51.368;12.364;2023-02-20T08:18:49;8.00;99.90
15259;DHT22;34462;51.368;12.364;2023-02-20T08:21:17;8.00;99.90
15259;DHT22;34462;51.368;12.364;2023-02-20T08:23:45;8.10;99.90
15259;DHT22;34462;51.368;12.364;2023-02-20T08:26:13;8.10;99.90
15259;DHT22;34462;51.368;12.364;2023-02-20T08:28:43;8.20;99.90
15259;DHT22;34462;51.368;12.364;2023-02-20T08:31:13;8.20;99.90
15259;DHT22;34462;51.368;12.364;2023-02-20T08:33:57;8.30;99.90
15259;DHT22;34462;51.368;12.364;2023-02-20T08:36:26;8.20;99.90
15259;DHT22;34462;51.368;12.364;2023-02-20T08:38:54;8.30;99.90
15259;DHT22;34462;51.368;12.364;2023-02-20T08:41:22;8.20;99.90
15259;DHT22;34462;51.368;12.364;2023-02-20T08:43:52;8.30;99.90
15259;DHT22;34462;51.368;12.364;2023-02-20T08:46:20;8.30;99.90
15259;DHT22;34462;51.368;12.364;2023-02-20T08:48:49;8.30;99.90
15259;DHT22;34462;51.368;12.364;2023-02-20T08:51:20;8.40;99.90
15259;DHT22;34462;51.368;12.364;2023-02-20T08:53:48;8.40;99.90
15259;DHT22;34462;51.368;12.364;2023-02-20T08:56:17;8.50;99.90
15259;DHT22;34462;51.368;12.364;2023-02-20T08:58:46;8.50;99.90
15259;DHT22;34462;51.368;12.364;2023-02-20T09:01:15;8.60;99.90
15259;DHT22;34462;51.368;12.364;2023-02-20T09:03:43;8.60;99.90
15259;DHT22;34462;51.368;12.364;2023-02-20T09:06:12;8.70;99.90
15259;DHT22;34462;51.368;12.364;2023-02-20T09:08:40;8.70;99.90
15259;DHT22;34462;51.368;12.364;2023-02-20T09:11:09;8.70;99.90
15259;DHT22;34462;51.368;12.364;2023-02-20T09:13:41;8.80;99.90
15259;DHT22;34462;51.368;12.364;2023-02-20T09:16:10;8.90;99.90
15259;DHT22;34462;51.368;12.364;2023-02-20T09:18:40;9.10;99.90
15259;DHT22;34462;51.368;12.364;2023-02-20T09:21:12;9.10;99.90
15259;DHT22;34462;51.368;12.364;2023-02-20T09:23:42;9.10;99.90
15259;DHT22;34462;51.368;12.364;2023-02-20T09:26:10;9.10;99.90
15259;DHT22;34462;51.368;12.364;2023-02-20T09:28:39;9.20;99.90
15259;DHT22;34462;51.368;12.364;2023-02-20T09:31:07;9.20;99.90
15259;DHT22;34462;51.368;12.364;2023-02-20T09:33:36;9.20;99.90
15259;DHT22;34462;51.368;12.364;2023-02-20T09:36:06;9.20;99.90
15259;DHT22;34462;51.368;12.364;2023-02-20T09:38:35;9.30;99.90
15259;DHT22;34462;51.368;12.364;2023-02-20T09:41:03;9.30;99.90
15259;DHT22;34462;51.368;12.364;2023-02-20T09:43:40;9.40;99.90
15259;DHT22;34462;51.368;12.364;2023-02-20T09:46:19;9.40;99.90
15259;DHT22;34462;51.368;12.364;2023-02-20T09:48:58;9.50;99.90
15259;DHT22;34462;51.368;12.364;2023-02-20T09:51:36;9.50;99.90
15259;DHT22;34462;51.368;12.364;2023-02-20T09:54:09;9.60;99.90
15259;DHT22;34462;51.368;12.364;2023-02-20T09:56:42;9.60;99.90
15259;DHT22;34462;51.368;12.364;2023-02-20T09:59:15;9.70;99.90
15259;DHT22;34462;51.368;12.364;2023-02-20T10:01:55;9.80;99.90
15259;DHT22;34462;51.368;12.364;2023-02-20T10:04:31;10.00;99.90
15259;DHT22;34462;51.368;12.364;2023-02-20T10:07:14;10.00;99.90
15259;DHT22;34462;51.368;12.364;2023-02-20T10:09:47;10.10;99.90
15259;DHT22;34462;51.368;12.364;2023-02-20T10:12:20;10.30;99.90
15259;DHT22;34462;51.368;12.364;2023-02-20T10:15:07;10.40;99.90
15259;DHT22;34462;51.368;12.364;2023-02-20T10:17:49;10.50;99.90
15259;DHT22;34462;51.368;12.364;2023-02-20T10:20:32;10.70;99.90
15259;DHT22;34462;51.368;12.364;2023-02-20T10:23:13;10.70;99.90
15259;DHT22;34462;51.368;12.364;2023-02-20T10:25:52;10.80;99.90
15259;DHT22;34462;51.368;12.364;2023-02-20T10:28:23;10.80;99.90
15259;DHT22;34462;51.368;12.364;2023-02-20T10:30:57;10.80;99.90
15259;DHT22;34462;51.368;12.364;2023-02-20T10:33:32;10.80;99.90
15259;DHT22;34462;51.368;12.364;2023-02-20T10:36:12;10.80;99.90
15259;DHT22;34462;51.368;12.364;2023-02-20T10:38:51;10.60;99.90
15259;DHT22;34462;51.368;12.364;2023-02-20T10:41:29;10.70;99.90
15259;DHT22;34462;51.368;12.364;2023-02-20T10:44:04;10.80;99.90
15259;DHT22;34462;51.368;12.364;2023-02-20T10:46:41;10.90;99.90
15259;DHT22;34462;51.368;12.364;2023-02-20T10:49:20;10.90;99.90
15259;DHT22;34462;51.368;12.364;2023-02-20T10:51:57;11.10;99.90
15259;DHT22;34462;51.368;12.364;2023-02-20T10:54:33;11.20;99.90
15259;DHT22;34462;51.368;12.364;2023-02-20T10:57:07;11.30;99.90
15259;DHT22;34462;51.368;12.364;2023-02-20T10:59:43;11.40;99.90
15259;DHT22;34462;51.368;12.364;2023-02-20T11:02:21;11.40;99.90
15259;DHT22;34462;51.368;12.364;2023-02-20T11:04:55;11.30;99.90
15259;DHT22;34462;51.368;12.364;2023-02-20T11:07:27;11.30;99.90
15259;DHT22;34462;51.368;12.364;2023-02-20T11:09:56;11.30;99.90
15259;DHT22;34462;51.368;12.364;2023-02-20T11:12:28;11.50;99.90
15259;DHT22;34462;51.368;12.364;2023-02-20T11:15:05;11.70;99.90
15259;DHT22;34462;51.368;12.364;2023-02-20T11:17:38;11.60;99.90
15259;DHT22;34462;51.368;12.364;2023-02-20T11:20:40;11.70;99.90
15259;DHT22;34462;51.368;12.364;2023-02-20T11:26:29;11.70;99.90
15259;DHT22;34462;51.368;12.364;2023-02-20T11:29:03;11.70;99.90
15259;DHT22;34462;51.368;12.364;2023-02-20T11:31:38;11.80;99.90
15259;DHT22;34462;51.368;12.364;2023-02-20T11:34:14;11.80;99.90
15259;DHT22;34462;51.368;12.364;2023-02-20T11:36:47;11.80;99.90
15259;DHT22;34462;51.368;12.364;2023-02-20T11:39:23;11.80;99.90
15259;DHT22;34462;51.368;12.364;2023-02-20T11:42:11;11.70;99.90
15259;DHT22;34462;51.368;12.364;2023-02-20T11:44:42;11.80;99.90
15259;DHT22;34462;51.368;12.364;2023-02-20T11:47:23;11.80;99.90
15259;DHT22;34462;51.368;12.364;2023-02-20T11:50:14;11.80;99.90
15259;DHT22;34462;51.368;12.364;2023-02-20T11:53:00;11.80;99.90
15259;DHT22;34462;51.368;12.364;2023-02-20T11:55:30;11.90;99.90
15259;DHT22;34462;51.368;12.364;2023-02-20T11:58:01;11.90;99.90
15259;DHT22;34462;51.368;12.364;2023-02-20T12:00:44;11.90;99.90
15259;DHT22;34462;51.368;12.364;2023-02-20T12:03:19;12.00;99.90
15259;DHT22;34462;51.368;12.364;2023-02-20T12:05:49;12.00;99.90
15259;DHT22;34462;51.368;12.364;2023-02-20T12:08:30;12.00;99.90
15259;DHT22;34462;51.368;12.364;2023-02-20T12:11:07;12.00;99.90
15259;DHT22;34462;51.368;12.364;2023-02-20T12:13:41;12.00;99.90
15259;DHT22;34462;51.368;12.364;2023-02-20T12:16:33;12.00;99.90
15259;DHT22;34462;51.368;12.364;2023-02-20T12:19:17;12.00;99.90
15259;DHT22;34462;51.368;12.364;2023-02-20T12:22:00;12.00;99.90
15259;DHT22;34462;51.368;12.364;2023-02-20T12:24:57;12.00;99.90
15259;DHT22;34462;51.368;12.364;2023-02-20T12:27:47;12.00;99.90
15259;DHT22;34462;51.368;12.364;2023-02-20T12:30:34;11.90;99.90
15259;DHT22;34462;51.368;12.364;2023-02-20T12:33:32;11.90;99.90
15259;DHT22;34462;51.368;12.364;2023-02-20T12:36:28;12.10;99.90
15259;DHT22;34462;51.368;12.364;2023-02-20T12:39:06;12.10;99.90
15259;DHT22;34462;51.368;12.364;2023-02-20T12:41:51;12.20;99.90
15259;DHT22;34462;51.368;12.364;2023-02-20T12:44:41;12.10;99.90
15259;DHT22;34462;51.368;12.364;2023-02-20T12:47:33;12.00;99.90
15259;DHT22;34462;51.368;12.364;2023-02-20T12:53:27;12.00;99.90
15259;DHT22;34462;51.368;12.364;2023-02-20T12:56:14;12.00;99.90
15259;DHT22;34462;51.368;12.364;2023-02-20T12:58:56;12.10;99.90
15259;DHT22;34462;51.368;12.364;2023-02-20T13:01:33;12.20;99.90
15259;DHT22;34462;51.368;12.364;2023-02-20T13:04:19;12.20;99.90
15259;DHT22;34462;51.368;12.364;2023-02-20T13:06:59;12.20;99.90
15259;DHT22;34462;51.368;12.364;2023-02-20T13:09:34;12.30;99.90
15259;DHT22;34462;51.368;12.364;2023-02-20T13:12:09;12.40;99.90
15259;DHT22;34462;51.368;12.364;2023-02-20T13:14:52;12.50;99.90
15259;DHT22;34462;51.368;12.364;2023-02-20T13:17:43;12.50;99.90
15259;DHT22;34462;51.368;12.364;2023-02-20T13:20:20;12.60;99.90
15259;DHT22;34462;51.368;12.364;2023-02-20T13:23:00;12.70;99.90
15259;DHT22;34462;51.368;12.364;2023-02-20T13:25:42;12.70;99.90
15259;DHT22;34462;51.368;12.364;2023-02-20T13:28:33;12.70;99.90
15259;DHT22;34462;51.368;12.364;2023-02-20T13:31:14;12.70;99.90
15259;DHT22;34462;51.368;12.364;2023-02-20T13:33:46;12.70;99.90
15259;DHT22;34462;51.368;12.364;2023-02-20T13:36:42;12.80;99.90
15259;DHT22;34462;51.368;12.364;2023-02-20T13:42:29;12.80;99.90
15259;DHT22;34462;51.368;12.364;2023-02-20T13:45:35;12.80;99.90
15259;DHT22;34462;51.368;12.364;2023-02-20T13:51:36;13.00;99.90
15259;DHT22;34462;51.368;12.364;2023-02-20T13:54:27;13.00;99.90
15259;DHT22;34462;51.368;12.364;2023-02-20T13:56:59;13.00;99.90
15259;DHT22;34462;51.368;12.364;2023-02-20T13:59:35;12.90;99.90
15259;DHT22;34462;51.368;12.364;2023-02-20T14:02:17;12.80;99.90
15259;DHT22;34462;51.368;12.364;2023-02-20T14:04:54;12.80;99.90
15259;DHT22;34462;51.368;12.364;2023-02-20T14:07:29;12.70;99.90
15259;DHT22;34462;51.368;12.364;2023-02-20T14:10:02;12.70;99.90
15259;DHT22;34462;51.368;12.364;2023-02-20T14:12:33;12.70;99.90
15259;DHT22;34462;51.368;12.364;2023-02-20T14:15:03;12.70;99.90
15259;DHT22;34462;51.368;12.364;2023-02-20T14:17:33;12.70;99.90
15259;DHT22;34462;51.368;12.364;2023-02-20T14:20:17;12.70;99.90
15259;DHT22;34462;51.368;12.364;2023-02-20T14:23:05;12.60;99.90
15259;DHT22;34462;51.368;12.364;2023-02-20T14:25:36;12.60;99.90
15259;DHT22;34462;51.368;12.364;2023-02-20T14:28:12;12.50;99.90
15259;DHT22;34462;51.368;12.364;2023-02-20T14:30:42;12.50;99.90
15259;DHT22;34462;51.368;12.364;2023-02-20T14:33:28;12.50;99.90
15259;DHT22;34462;51.368;12.364;2023-02-20T14:36:18;12.40;99.90
15259;DHT22;34462;51.368;12.364;2023-02-20T14:39:01;12.40;99.90
15259;DHT22;34462;51.368;12.364;2023-02-20T14:41:50;12.40;99.90
15259;DHT22;34462;51.368;12.364;2023-02-20T14:44:20;12.40;99.90
15259;DHT22;34462;51.368;12.364;2023-02-20T14:46:51;12.50;99.90
15259;DHT22;34462;51.368;12.364;2023-02-20T14:49:24;12.40;99.90
15259;DHT22;34462;51.368;12.364;2023-02-20T14:52:06;12.40;99.90
15259;DHT22;34462;51.368;12.364;2023-02-20T14:54:42;12.50;99.90
15259;DHT22;34462;51.368;12.364;2023-02-20T14:57:13;12.40;99.90
15259;DHT22;34462;51.368;12.364;2023-02-20T14:59:42;12.50;99.90
15259;DHT22;34462;51.368;12.364;2023-02-20T15:02:15;12.40;99.90
15259;DHT22;34462;51.368;12.364;2023-02-20T15:05:01;12.30;99.90
15259;DHT22;34462;51.368;12.364;2023-02-20T15:07:32;12.30;99.90
15259;DHT22;34462;51.368;12.364;2023-02-20T15:10:05;12.20;99.90
15259;DHT22;34462;51.368;12.364;2023-02-20T15:12:58;12.10;99.90
15259;DHT22;34462;51.368;12.364;2023-02-20T15:15:37;12.10;99.90
15259;DHT22;34462;51.368;12.364;2023-02-20T15:18:09;12.00;99.90
15259;DHT22;34462;51.368;12.364;2023-02-20T15:20:44;12.00;99.90
15259;DHT22;34462;51.368;12.364;2023-02-20T15:23:23;11.80;99.90
15259;DHT22;34462;51.368;12.364;2023-02-20T15:25:55;11.80;99.90
15259;DHT22;34462;51.368;12.364;2023-02-20T15:28:28;11.70;99.90
15259;DHT22;34462;51.368;12.364;2023-02-20T15:31:03;11.70;99.90
15259;DHT22;34462;51.368;12.364;2023-02-20T15:33:47;11.70;99.90
15259;DHT22;34462;51.368;12.364;2023-02-20T15:36:20;11.70;99.90
15259;DHT22;34462;51.368;12.364;2023-02-20T15:38:51;11.70;99.90
15259;DHT22;34462;51.368;12.364;2023-02-20T15:41:22;11.80;99.90
15259;DHT22;34462;51.368;12.364;2023-02-20T15:43:52;11.70;99.90
15259;DHT22;34462;51.368;12.364;2023-02-20T15:46:20;11.80;99.90
15259;DHT22;34462;51.368;12.364;2023-02-20T15:48:48;11.70;99.90
15259;DHT22;34462;51.368;12.364;2023-02-20T15:51:18;11.70;99.90
15259;DHT22;34462;51.368;12.364;2023-02-20T15:53:50;11.70;99.90
15259;DHT22;34462;51.368;12.364;2023-02-20T15:56:20;11.70;99.90
15259;DHT22;34462;51.368;12.364;2023-02-20T15:58:49;11.70;99.90
15259;DHT22;34462;51.368;12.364;2023-02-20T16:01:19;11.70;99.90
15259;DHT22;34462;51.368;12.364;2023-02-20T16:03:47;11.70;99.90
15259;DHT22;34462;51.368;12.364;2023-02-20T16:06:19;11.80;99.90
15259;DHT22;34462;51.368;12.364;2023-02-20T16:08:49;11.90;99.90
15259;DHT22;34462;51.368;12.364;2023-02-20T16:11:20;11.90;99.90
15259;DHT22;34462;51.368;12.364;2023-02-20T16:13:53;11.80;99.90
15259;DHT22;34462;51.368;12.364;2023-02-20T16:16:31;11.80;99.90
15259;DHT22;34462;51.368;12.364;2023-02-20T16:19:01;11.90;99.90
15259;DHT22;34462;51.368;12.364;2023-02-20T16:21:30;11.90;99.90
15259;DHT22;34462;51.368;12.364;2023-02-20T16:23:59;11.80;99.90
15259;DHT22;34462;51.368;12.364;2023-02-20T16:26:31;11.70;99.90
15259;DHT22;34462;51.368;12.364;2023-02-20T16:29:05;11.70;99.90
15259;DHT22;34462;51.368;12.364;2023-02-20T16:34:44;11.50;99.90
15259;DHT22;34462;51.368;12.364;2023-02-20T16:37:13;11.50;99.90